Time;durP1;ratioP1;P1;durP2;ratioP2;P2;SDS_P1;SDS_P2;PMS_P1;PMS_P2;Temp;Humidity;BMP_temperature;BMP_pressure;BME280_temperature;BME280_humidity;BME280_pressure;Samples;Min_cycle;Max_cycle;Signal;HPM_P1;HPM_P2
2021/05/03 00:02:07;;;;;;;21.23;10.20;;;;;;;19.19;61.10;101591.50;4912663;29;20100;-65
2021/05/03 00:04:33;;;;;;;14.07;9.63;;;;;;;19.20;61.00;101595.00;4908781;29;20070;-65
2021/05/03 00:06:59;;;;;;;18.85;9.60;;;;;;;19.19;60.78;101594.16;4912162;29;20146;-65
2021/05/03 00:09:24;;;;;;;14.45;9.00;;;;;;;19.19;60.73;101585.38;4911705;29;20036;-64
2021/05/03 00:11:50;;;;;;;13.60;8.70;;;;;;;19.18;60.67;101589.03;4912136;29;20055;-65
2021/05/03 00:14:15;;;;;;;15.30;9.15;;;;;;;19.19;60.84;101577.38;4911626;29;20036;-65
2021/05/03 00:16:41;;;;;;;18.20;9.95;;;;;;;19.17;60.98;101580.22;4912169;29;20035;-65
2021/05/03 00:19:06;;;;;;;15.65;9.15;;;;;;;19.16;60.82;101567.94;4905260;29;20107;-65
2021/05/03 00:21:32;;;;;;;15.40;8.60;;;;;;;19.15;60.79;101564.44;4912002;29;20324;-65
2021/05/03 00:23:58;;;;;;;14.95;8.95;;;;;;;19.14;60.75;101560.13;4911917;29;20399;-65
2021/05/03 00:26:23;;;;;;;19.60;8.98;;;;;;;19.14;60.29;101560.13;4910881;29;20047;-65
2021/05/03 00:28:49;;;;;;;15.85;9.15;;;;;;;19.13;60.29;101552.34;4910953;29;20590;-65
2021/05/03 00:31:14;;;;;;;15.23;8.68;;;;;;;19.11;60.56;101555.16;4912019;29;20068;-65
2021/05/03 00:33:40;;;;;;;12.98;8.30;;;;;;;19.12;60.47;101548.03;4911154;29;20039;-65
2021/05/03 00:36:06;;;;;;;14.70;8.13;;;;;;;19.12;60.36;101551.50;4904724;29;20107;-65
2021/05/03 00:38:31;;;;;;;15.20;8.43;;;;;;;19.10;60.12;101540.22;4912137;29;20032;-65
2021/05/03 00:41:01;;;;;;;15.02;8.27;;;;;;;19.10;60.03;101537.56;4905244;29;20064;-65
2021/05/03 00:43:26;;;;;;;13.52;8.05;;;;;;;19.10;60.20;101534.06;4911729;29;20043;-65
2021/05/03 00:45:52;;;;;;;13.77;8.32;;;;;;;19.09;60.00;101541.22;4912041;29;20040;-65
2021/05/03 00:48:19;;;;;;;12.60;7.90;;;;;;;19.09;60.04;101532.38;4911405;29;20039;-65
2021/05/03 00:50:45;;;;;;;11.90;7.65;;;;;;;19.09;59.91;101533.25;4911196;29;20130;-65
2021/05/03 00:53:11;;;;;;;12.52;7.28;;;;;;;19.09;59.75;101517.28;4910644;29;20044;-65
2021/05/03 00:55:37;;;;;;;12.88;7.60;;;;;;;19.08;59.91;101520.09;4911544;29;20040;-64
2021/05/03 00:58:04;;;;;;;13.27;7.68;;;;;;;19.08;59.57;101520.91;4909540;29;20042;-65
2021/05/03 01:00:30;;;;;;;12.45;7.13;;;;;;;19.08;59.84;101515.59;4911838;29;20032;-65
2021/05/03 01:02:55;;;;;;;11.98;7.00;;;;;;;19.07;59.56;101513.13;4910919;29;20099;-65
2021/05/03 01:05:21;;;;;;;10.20;6.82;;;;;;;19.07;59.36;101505.16;4911841;29;20047;-65
2021/05/03 01:07:47;;;;;;;11.60;7.60;;;;;;;19.06;59.83;101498.19;4911306;29;20036;-65
2021/05/03 01:10:14;;;;;;;10.95;6.90;;;;;;;19.05;59.32;101496.53;4906464;29;20096;-65
2021/05/03 01:12:40;;;;;;;11.52;7.07;;;;;;;19.05;59.50;101485.88;4916148;29;20040;-65
2021/05/03 01:15:08;;;;;;;11.27;6.57;;;;;;;19.06;59.56;101487.53;4908778;29;20050;-64
2021/05/03 01:17:34;;;;;;;12.15;7.25;;;;;;;19.04;59.33;101490.38;4915093;29;20032;-65
2021/05/03 01:20:27;;;;;;;13.27;7.28;;;;;;;18.99;59.44;101482.09;4907573;29;20146;-65
2021/05/03 01:22:56;;;;;;;12.80;6.72;;;;;;;19.04;59.15;101479.75;4927441;29;20062;-65
2021/05/03 01:25:27;;;;;;;12.38;6.25;;;;;;;19.03;59.27;101480.75;4934144;29;20068;-65
2021/05/03 01:27:52;;;;;;;9.68;6.15;;;;;;;19.03;59.08;101475.44;4933738;29;20483;-65
2021/05/03 01:30:18;;;;;;;9.38;6.22;;;;;;;19.04;59.26;101470.94;4893742;29;20107;-65
2021/05/03 01:32:44;;;;;;;10.93;6.45;;;;;;;19.03;59.24;101462.13;4933919;29;20039;-65
2021/05/03 01:35:13;;;;;;;9.95;6.43;;;;;;;19.03;59.24;101461.31;4933133;29;20038;-65
2021/05/03 01:37:38;;;;;;;9.27;6.07;;;;;;;19.03;58.91;101445.34;4930202;29;20031;-65
2021/05/03 01:40:04;;;;;;;11.05;6.45;;;;;;;19.03;59.05;101446.19;4933174;29;20055;-65
2021/05/03 01:42:30;;;;;;;10.32;6.05;;;;;;;19.02;58.72;101443.69;4932321;29;20027;-65
2021/05/03 01:45:01;;;;;;;10.65;6.05;;;;;;;19.03;59.11;101434.72;4916772;29;20498;-65
2021/05/03 01:47:28;;;;;;;11.20;5.80;;;;;;;19.02;59.09;101438.38;4915999;29;20467;-65
2021/05/03 01:49:54;;;;;;;8.52;5.80;;;;;;;19.01;58.60;101437.56;4934155;29;20031;-65
2021/05/03 01:52:20;;;;;;;9.88;5.57;;;;;;;19.00;58.73;101433.25;4933334;29;20061;-65
2021/05/03 01:54:46;;;;;;;10.30;5.45;;;;;;;19.03;58.75;101429.41;4934438;29;20033;-65
2021/05/03 01:57:12;;;;;;;10.45;5.78;;;;;;;19.01;58.53;101426.09;4932938;29;20107;-65
2021/05/03 01:59:39;;;;;;;8.65;5.10;;;;;;;19.01;58.48;101420.78;4934221;29;20036;-65
2021/05/03 02:02:04;;;;;;;8.85;5.60;;;;;;;19.01;58.44;101415.47;4933066;29;20549;-65
2021/05/03 02:04:29;;;;;;;9.38;5.72;;;;;;;19.01;58.39;101418.13;4932790;29;20034;-65
2021/05/03 02:06:55;;;;;;;7.90;5.10;;;;;;;19.00;58.31;101409.31;4934316;29;20071;-65
2021/05/03 02:09:20;;;;;;;9.57;5.15;;;;;;;18.99;58.63;101406.84;4932742;29;20458;-64
2021/05/03 02:11:46;;;;;;;10.65;5.97;;;;;;;18.99;58.24;101404.19;4933719;29;20273;-65
2021/05/03 02:14:12;;;;;;;8.38;5.10;;;;;;;18.98;58.69;101395.38;4916830;29;20345;-65
2021/05/03 02:16:37;;;;;;;9.27;5.18;;;;;;;18.98;58.42;101384.75;4933535;29;20063;-65
2021/05/03 02:19:03;;;;;;;7.40;4.78;;;;;;;18.99;58.25;101386.41;4916679;29;20046;-65
2021/05/03 02:21:29;;;;;;;8.00;5.28;;;;;;;18.98;58.17;101375.94;4931814;29;20079;-65
2021/05/03 02:23:54;;;;;;;7.80;4.45;;;;;;;18.97;58.52;101377.78;4916646;29;20122;-65
2021/05/03 02:26:19;;;;;;;9.18;5.63;;;;;;;18.97;58.49;101367.13;4932768;29;20092;-65
2021/05/03 02:28:45;;;;;;;7.63;4.63;;;;;;;18.97;58.09;101356.50;4933386;29;20040;-65
2021/05/03 02:31:10;;;;;;;7.38;4.68;;;;;;;18.96;58.19;101352.19;4915664;29;20054;-65
2021/05/03 02:33:36;;;;;;;11.05;5.20;;;;;;;18.96;58.36;101354.03;4932896;29;20032;-65
2021/05/03 02:36:02;;;;;;;7.30;4.60;;;;;;;18.96;58.07;101354.03;4913163;29;20044;-65
2021/05/03 02:38:30;;;;;;;9.13;4.68;;;;;;;18.95;58.05;101347.88;4930539;29;20123;-65
2021/05/03 02:40:56;;;;;;;8.00;4.80;;;;;;;18.95;57.93;101339.91;4933624;29;20036;-65
2021/05/03 02:43:21;;;;;;;7.30;4.40;;;;;;;18.94;58.25;101332.94;4932779;29;20344;-65
2021/05/03 02:45:47;;;;;;;7.90;4.70;;;;;;;18.94;58.02;101326.78;4933675;29;20483;-65
2021/05/03 02:48:13;;;;;;;8.05;4.40;;;;;;;18.94;58.03;101324.13;4915193;29;20040;-65
2021/05/03 02:50:38;;;;;;;11.00;4.82;;;;;;;18.93;58.07;101319.78;4931910;29;20042;-65
2021/05/03 02:53:04;;;;;;;6.65;4.28;;;;;;;18.92;57.98;101313.66;4932152;29;20127;-65
2021/05/03 02:55:29;;;;;;;6.47;4.32;;;;;;;18.93;57.87;101310.00;4915684;29;20095;-65
2021/05/03 02:57:55;;;;;;;6.28;4.50;;;;;;;18.92;58.15;101303.03;4896639;29;20040;-65
2021/05/03 03:00:29;;;;;;;6.50;3.92;;;;;;;18.90;57.87;101297.06;4933042;29;20122;-65
2021/05/03 03:02:55;;;;;;;6.85;4.03;;;;;;;18.91;57.90;101292.56;4931801;29;20078;-65
2021/05/03 03:05:21;;;;;;;6.65;4.10;;;;;;;18.91;57.89;101282.75;4932377;29;20044;-65
2021/05/03 03:07:49;;;;;;;6.38;3.70;;;;;;;18.90;57.69;101278.44;4932088;29;20035;-65
2021/05/03 03:10:14;;;;;;;6.47;3.97;;;;;;;18.91;57.68;101288.09;4915185;29;20570;-65
2021/05/03 03:12:40;;;;;;;5.75;3.97;;;;;;;18.91;57.80;101273.97;4932510;29;20031;-65
2021/05/03 03:15:11;;;;;;;6.82;3.70;;;;;;;18.91;57.84;101263.34;4932154;29;20054;-65
2021/05/03 03:17:37;;;;;;;6.18;4.03;;;;;;;18.90;57.58;101259.84;4915387;29;20043;-65
2021/05/03 03:20:07;;;;;;;8.40;3.70;;;;;;;18.90;57.74;101257.19;4918653;29;20027;-65
2021/05/03 03:22:33;;;;;;;6.57;4.15;;;;;;;18.90;57.51;101261.69;4914513;29;20063;-65
2021/05/03 03:24:59;;;;;;;6.50;3.63;;;;;;;18.89;57.36;101258.19;4931508;29;20044;-65
2021/05/03 03:27:24;;;;;;;7.95;3.65;;;;;;;18.90;57.77;101257.19;4931975;29;20051;-65
2021/05/03 03:29:50;;;;;;;5.85;3.60;;;;;;;18.88;57.57;101245.91;4932483;29;20054;-65
2021/05/03 03:32:15;;;;;;;5.85;3.65;;;;;;;18.90;57.69;101245.72;4914382;29;20043;-65
2021/05/03 03:34:41;;;;;;;5.60;3.38;;;;;;;18.89;57.53;101233.44;4932381;29;20099;-65
2021/05/03 03:37:06;;;;;;;6.72;3.60;;;;;;;18.89;57.87;101231.63;4914729;29;20035;-65
2021/05/03 03:39:32;;;;;;;5.90;3.50;;;;;;;18.89;57.32;101220.16;4929341;29;20361;-65
2021/05/03 03:41:57;;;;;;;5.95;3.60;;;;;;;18.89;57.47;101206.88;4906333;29;20102;-65
2021/05/03 03:44:23;;;;;;;4.70;3.05;;;;;;;18.89;57.30;101212.19;4931781;29;20435;-65
2021/05/03 03:46:50;;;;;;;7.82;3.15;;;;;;;18.88;57.46;101194.59;4898449;29;20364;-65
2021/05/03 03:49:16;;;;;;;5.78;3.60;;;;;;;18.88;57.26;101194.59;4909759;29;20095;-64
2021/05/03 03:51:41;;;;;;;4.90;3.15;;;;;;;18.88;56.93;101186.59;4914803;29;20039;-65
2021/05/03 03:54:07;;;;;;;5.30;2.95;;;;;;;18.87;56.91;101172.50;4913709;29;20036;-65
2021/05/03 03:56:32;;;;;;;4.18;2.85;;;;;;;18.87;57.02;101164.53;4928871;29;20423;-65
2021/05/03 03:58:57;;;;;;;5.68;3.20;;;;;;;18.87;56.90;101163.69;4928995;29;20026;-65
2021/05/03 04:01:23;;;;;;;5.28;3.17;;;;;;;18.85;57.00;101155.91;4931936;29;20035;-65
2021/05/03 04:03:55;;;;;;;5.80;3.05;;;;;;;18.85;57.13;101153.25;4931185;29;20488;-65
2021/05/03 04:06:43;;;;;;;4.80;3.00;;;;;;;18.85;56.77;101145.28;4915407;29;20043;-65
2021/05/03 04:09:14;;;;;;;5.90;2.90;;;;;;;18.84;56.58;101154.25;4931153;29;20031;-65
2021/05/03 04:25:37;;;;;;;5.18;3.03;;;;;;;18.78;56.33;101128.44;4930669;29;20156;-65
2021/05/03 04:28:04;;;;;;;4.32;2.33;;;;;;;18.78;56.67;101110.66;4930707;29;20032;-65
2021/05/03 04:30:30;;;;;;;4.38;2.65;;;;;;;18.78;56.27;101118.63;4931440;29;20043;-65
2021/05/03 04:32:56;;;;;;;5.38;3.03;;;;;;;18.78;56.31;101107.16;4913128;29;20103;-65
2021/05/03 04:35:22;;;;;;;4.85;2.55;;;;;;;18.78;56.49;101108.00;4931471;29;20059;-65
2021/05/03 04:37:47;;;;;;;3.83;2.60;;;;;;;18.76;56.42;101099.34;4912601;29;20046;-65
2021/05/03 04:40:13;;;;;;;4.68;2.67;;;;;;;18.76;56.24;101091.38;4913896;29;20043;-65
2021/05/03 04:42:39;;;;;;;4.35;2.78;;;;;;;18.76;56.16;101091.38;4931302;29;20515;-65
2021/05/03 04:45:05;;;;;;;3.95;2.40;;;;;;;18.76;55.80;101104.66;4906459;29;20059;-65
2021/05/03 04:47:31;;;;;;;4.13;2.47;;;;;;;18.73;56.07;101102.38;4898132;29;20050;-65
2021/05/03 04:49:58;;;;;;;4.35;2.35;;;;;;;18.74;55.70;101093.41;4930592;29;20028;-65
2021/05/03 04:52:24;;;;;;;3.38;2.00;;;;;;;18.74;55.63;101092.56;4930677;29;20467;-65
2021/05/03 04:54:49;;;;;;;4.45;2.50;;;;;;;18.74;55.82;101081.94;4913919;29;20063;-65
2021/05/03 04:57:14;;;;;;;4.15;2.10;;;;;;;18.73;55.54;101078.47;4913295;29;20040;-65
2021/05/03 04:59:40;;;;;;;3.75;2.40;;;;;;;18.72;55.68;101066.19;4931626;29;20028;-65
2021/05/03 05:02:05;;;;;;;4.50;2.25;;;;;;;18.72;55.24;101052.06;4894088;29;20753;-65
2021/05/03 05:04:31;;;;;;;4.43;2.35;;;;;;;18.72;55.14;101050.25;4930801;29;20422;-65
2021/05/03 05:06:59;;;;;;;3.58;1.83;;;;;;;18.71;55.29;101030.00;4897453;29;20460;-65
2021/05/03 05:09:25;;;;;;;3.90;2.28;;;;;;;18.72;55.34;101028.97;4929730;29;20032;-65
2021/05/03 05:11:50;;;;;;;4.53;2.10;;;;;;;18.70;55.15;101023.03;4912988;29;20040;-65
2021/05/03 05:14:17;;;;;;;4.30;2.13;;;;;;;18.70;55.02;101011.59;4928850;29;20466;-65
2021/05/03 05:16:43;;;;;;;3.78;2.22;;;;;;;18.71;55.20;101007.91;4929934;29;20066;-65
2021/05/03 05:19:09;;;;;;;3.47;2.17;;;;;;;18.71;55.21;101002.59;4928538;29;20031;-65
2021/05/03 05:21:36;;;;;;;3.45;1.90;;;;;;;18.71;54.99;100997.28;4928796;29;20056;-65
2021/05/03 05:24:01;;;;;;;3.85;2.00;;;;;;;18.71;55.05;100986.66;4911249;29;20039;-65
2021/05/03 05:26:27;;;;;;;3.58;1.95;;;;;;;18.70;55.02;100983.16;4893552;29;20047;-65
2021/05/03 05:28:52;;;;;;;3.72;1.80;;;;;;;18.70;54.69;100979.69;4907644;29;20467;-65
2021/05/03 05:31:18;;;;;;;3.45;1.75;;;;;;;18.70;54.65;100971.72;4912095;29;20110;-65
2021/05/03 05:33:43;;;;;;;3.03;1.60;;;;;;;18.69;54.90;100964.75;4929175;29;20476;-65
2021/05/03 05:36:09;;;;;;;3.28;1.85;;;;;;;18.68;54.93;100955.97;4928472;29;20076;-65
2021/05/03 05:38:36;;;;;;;3.28;1.95;;;;;;;18.69;54.60;100944.31;4928887;29;20124;-65
2021/05/03 05:41:02;;;;;;;3.05;1.85;;;;;;;18.68;54.77;100933.88;4912917;29;20491;-65
2021/05/03 05:43:27;;;;;;;2.90;1.70;;;;;;;18.69;54.57;100924.91;4929335;29;20036;-65
2021/05/03 05:45:53;;;;;;;3.60;1.90;;;;;;;18.69;54.72;100922.25;4913326;29;20048;-65
2021/05/03 05:48:18;;;;;;;3.58;1.90;;;;;;;18.69;54.53;100904.47;4912184;29;20054;-65
2021/05/03 05:50:44;;;;;;;3.60;1.75;;;;;;;18.70;54.95;100905.28;4929562;29;20818;-65
2021/05/03 05:53:09;;;;;;;3.72;1.75;;;;;;;18.68;54.93;100897.50;4929938;29;20043;-65
2021/05/03 05:55:34;;;;;;;3.38;1.80;;;;;;;18.68;54.48;100894.84;4912648;29;20471;-65
2021/05/03 05:58:00;;;;;;;2.63;1.50;;;;;;;18.69;54.77;100882.38;4932096;29;20040;-65
2021/05/03 06:00:25;;;;;;;2.97;1.80;;;;;;;18.68;54.59;100878.09;4899792;29;20028;-65
2021/05/03 06:02:51;;;;;;;2.75;1.73;;;;;;;18.68;54.63;100875.44;4915598;29;20044;-65
2021/05/03 06:05:18;;;;;;;2.97;1.52;;;;;;;18.68;54.83;100870.13;4899839;29;20118;-65
2021/05/03 06:07:44;;;;;;;1.95;1.30;;;;;;;18.67;54.63;100863.97;4901968;29;20036;-65
2021/05/03 06:10:10;;;;;;;2.67;1.58;;;;;;;18.66;54.46;100851.72;4911341;29;20050;-65
2021/05/03 06:12:35;;;;;;;2.17;1.48;;;;;;;18.67;54.63;100844.56;4900131;29;20467;-65
2021/05/03 06:15:00;;;;;;;2.50;1.55;;;;;;;18.67;54.76;100836.59;4933458;29;20411;-65
2021/05/03 06:17:26;;;;;;;2.63;1.52;;;;;;;18.66;54.44;100821.66;4898769;29;20127;-65
2021/05/03 06:19:51;;;;;;;2.97;1.67;;;;;;;18.66;54.58;100811.03;4933375;29;20467;-65
2021/05/03 06:22:18;;;;;;;2.40;1.40;;;;;;;18.65;54.82;100798.75;4914099;29;20058;-65
2021/05/03 06:24:43;;;;;;;3.00;1.58;;;;;;;18.65;54.85;100791.59;4933187;29;20044;-65
2021/05/03 06:27:10;;;;;;;2.25;1.30;;;;;;;18.65;54.67;100783.63;4933802;29;20129;-65
2021/05/03 06:29:36;;;;;;;2.78;1.67;;;;;;;18.64;54.62;100766.06;4931051;29;20035;-65
2021/05/03 06:32:02;;;;;;;2.85;1.40;;;;;;;18.64;54.67;100757.25;4933901;29;20047;-65
2021/05/03 06:34:29;;;;;;;3.08;1.52;;;;;;;18.64;54.90;100749.28;4899674;29;20052;-65
2021/05/03 06:36:55;;;;;;;2.83;1.40;;;;;;;18.63;54.49;100731.69;4916706;29;20027;-65
2021/05/03 06:39:20;;;;;;;2.83;1.42;;;;;;;18.63;54.91;100729.88;4914898;29;20430;-66
2021/05/03 06:41:48;;;;;;;2.15;1.33;;;;;;;18.62;54.70;100716.72;4915079;29;20047;-65
2021/05/03 06:44:13;;;;;;;2.13;1.30;;;;;;;18.61;54.47;100710.59;4912579;29;20040;-66
2021/05/03 06:46:39;;;;;;;2.22;1.33;;;;;;;18.61;54.61;100707.94;4914202;29;20036;-65
2021/05/03 06:49:04;;;;;;;2.70;1.60;;;;;;;18.62;54.62;100695.47;4909139;29;20071;-65
2021/05/03 06:51:31;;;;;;;3.03;1.52;;;;;;;18.61;54.61;100688.50;4931890;29;20731;-65
2021/05/03 06:53:57;;;;;;;3.47;1.63;;;;;;;18.61;54.91;100669.91;4932599;29;20550;-66
2021/05/03 06:56:24;;;;;;;2.65;1.50;;;;;;;18.61;54.63;100670.75;4933273;29;20053;-65
2021/05/03 06:58:49;;;;;;;2.10;1.33;;;;;;;18.61;54.73;100664.59;4931557;29;20068;-65
2021/05/03 07:01:15;;;;;;;2.40;1.30;;;;;;;18.61;54.69;100648.66;4933638;29;20067;-66
2021/05/03 07:03:42;;;;;;;2.10;1.20;;;;;;;18.61;54.47;100632.72;4914931;29;21445;-65
2021/05/03 07:06:08;;;;;;;2.08;1.40;;;;;;;18.61;54.61;100624.75;4933494;29;20495;-65
2021/05/03 07:08:34;;;;;;;1.98;1.42;;;;;;;18.61;54.52;100606.16;4931540;29;20070;-65
2021/05/03 07:11:02;;;;;;;2.20;1.38;;;;;;;18.61;54.45;100598.19;4932972;29;20093;-65
2021/05/03 07:13:27;;;;;;;2.25;1.20;;;;;;;18.60;54.68;100588.56;4911833;29;20032;-66
2021/05/03 07:15:53;;;;;;;3.45;1.42;;;;;;;18.60;54.79;100567.31;4931318;29;20044;-67
2021/05/03 07:18:18;;;;;;;2.70;1.10;;;;;;;18.60;54.45;100557.53;4914619;29;20045;-67
2021/05/03 07:20:43;;;;;;;5.68;1.63;;;;;;;18.60;54.62;100552.19;4932011;29;20040;-69
2021/05/03 07:23:09;;;;;;;4.93;1.58;;;;;;;18.63;54.87;100546.56;4931441;29;20051;-68
2021/05/03 07:25:35;;;;;;;6.70;1.33;;;;;;;18.64;54.66;100528.78;4915263;29;20117;-69
2021/05/03 07:28:01;;;;;;;2.40;1.38;;;;;;;18.66;54.54;100518.78;4915343;29;20240;-67
2021/05/03 07:30:26;;;;;;;2.83;1.17;;;;;;;18.67;55.00;100507.94;4932557;29;20027;-66
2021/05/03 07:32:52;;;;;;;3.05;1.20;;;;;;;18.68;55.06;100487.50;4931933;29;20416;-68
2021/05/03 07:35:18;;;;;;;4.70;1.38;;;;;;;18.70;55.01;100469.53;4896720;29;20040;-68
2021/05/03 07:37:43;;;;;;;4.10;1.35;;;;;;;18.71;55.34;100463.19;4911032;29;20039;-68
2021/05/03 07:40:09;;;;;;;5.25;1.30;;;;;;;18.71;55.25;100457.88;4914999;29;20032;-67
2021/05/03 07:42:35;;;;;;;2.28;1.10;;;;;;;18.71;55.53;100448.06;4912918;29;20040;-67
2021/05/03 07:45:01;;;;;;;2.17;1.10;;;;;;;18.70;55.25;100441.13;4931818;29;20110;-67
2021/05/03 07:47:27;;;;;;;3.97;1.13;;;;;;;18.69;55.21;100428.84;4922832;29;20030;-68
2021/05/03 07:49:53;;;;;;;3.55;1.33;;;;;;;18.68;55.30;100411.28;4935523;29;20028;-66
2021/05/03 07:52:19;;;;;;;2.95;1.17;;;;;;;18.68;55.79;100399.81;4895378;29;20096;-67
2021/05/03 07:54:45;;;;;;;5.53;1.40;;;;;;;18.68;56.03;100381.22;4925408;29;20172;-66
2021/05/03 07:57:10;;;;;;;6.55;1.20;;;;;;;18.67;56.10;100367.13;4913690;29;20086;-66
2021/05/03 07:59:35;;;;;;;6.53;1.55;;;;;;;18.68;55.95;100352.00;4915005;29;20040;-66
2021/05/03 08:02:01;;;;;;;2.40;1.20;;;;;;;18.68;56.48;100331.56;4931058;29;20036;-67
2021/05/03 08:04:26;;;;;;;4.18;1.20;;;;;;;18.67;56.61;100323.81;4914744;29;20443;-66
2021/05/03 08:06:57;;;;;;;4.95;1.00;;;;;;;18.66;56.68;100299.06;4931053;29;20043;-66
2021/05/03 08:09:24;;;;;;;3.70;1.30;;;;;;;18.66;56.62;100285.78;4931481;29;20039;-66
2021/05/03 08:11:51;;;;;;;2.05;0.93;;;;;;;18.66;56.96;100264.53;4904416;29;20109;-66
2021/05/03 08:14:18;;;;;;;5.15;1.08;;;;;;;18.67;57.01;100260.03;4899117;29;20032;-70
2021/05/03 08:16:48;;;;;;;4.40;1.38;;;;;;;18.66;57.14;100248.59;4931081;29;20048;-67
2021/05/03 08:19:13;;;;;;;5.18;1.02;;;;;;;18.67;57.90;100246.75;4927104;29;20123;-65
2021/05/03 08:21:39;;;;;;;3.85;1.05;;;;;;;18.69;57.78;100226.94;4930122;29;20119;-67
2021/05/03 08:24:04;;;;;;;5.72;1.10;;;;;;;18.69;58.30;100207.50;4929476;29;20502;-65
2021/05/03 08:26:30;;;;;;;5.97;1.30;;;;;;;18.69;58.44;100203.03;4913393;29;20060;-66
2021/05/03 08:28:55;;;;;;;2.45;0.90;;;;;;;18.70;58.27;100185.25;4930180;29;20460;-65
2021/05/03 08:31:21;;;;;;;5.03;1.05;;;;;;;18.71;58.22;100174.41;4929680;29;20087;-66
2021/05/03 08:33:46;;;;;;;4.70;1.10;;;;;;;18.71;58.60;100168.28;4927786;29;20483;-67
2021/05/03 08:36:12;;;;;;;6.22;1.13;;;;;;;18.72;58.47;100146.00;4927050;29;20084;-67
2021/05/03 08:38:37;;;;;;;6.47;1.20;;;;;;;18.72;58.80;100130.88;4908917;29;20387;-68
2021/05/03 08:41:04;;;;;;;5.57;1.15;;;;;;;18.72;58.85;100109.63;4926753;29;20039;-66
2021/05/03 08:43:34;;;;;;;4.80;1.05;;;;;;;18.74;59.01;100096.13;4926745;29;20036;-65
2021/05/03 08:46:00;;;;;;;3.60;1.30;;;;;;;18.75;58.77;100087.13;4910356;29;20139;-67
2021/05/03 08:48:37;;;;;;;4.20;1.10;;;;;;;18.75;59.40;100081.81;4907291;29;20390;-66
2021/05/03 08:53:35;;;;;;;5.03;1.00;;;;;;;18.77;59.20;100038.06;4926364;29;20047;-65
2021/05/03 08:56:00;;;;;;;5.13;1.15;;;;;;;18.78;59.67;100028.28;4908899;29;20122;-67
2021/05/03 08:58:27;;;;;;;3.80;1.17;;;;;;;18.79;59.63;100014.78;4925798;29;20085;-66
2021/05/03 09:00:53;;;;;;;3.80;1.20;;;;;;;18.81;59.56;100001.28;4926498;29;20048;-64
2021/05/03 09:03:19;;;;;;;4.30;1.42;;;;;;;18.80;59.80;99997.00;4878488;29;20035;-65
2021/05/03 09:05:45;;;;;;;3.45;1.25;;;;;;;18.80;59.53;99973.88;4925726;29;20435;-65
2021/05/03 09:08:23;;;;;;;3.63;1.13;;;;;;;18.78;59.78;99980.44;4926578;29;20119;-66
2021/05/03 09:10:50;;;;;;;5.00;1.45;;;;;;;18.81;59.87;99959.56;4909384;29;20551;-66
2021/05/03 09:13:16;;;;;;;3.45;1.10;;;;;;;18.81;59.80;99943.63;4927506;29;20094;-67
2021/05/03 09:15:44;;;;;;;3.08;1.05;;;;;;;18.82;59.94;99928.50;4927964;29;20433;-68
2021/05/03 09:18:11;;;;;;;6.68;1.10;;;;;;;18.81;59.64;99914.41;4926301;29;20391;-66
2021/05/03 09:20:36;;;;;;;3.25;1.20;;;;;;;18.82;59.69;99921.34;4926469;29;20520;-66
2021/05/03 09:23:17;;;;;;;4.05;1.02;;;;;;;18.81;59.42;99887.03;4908705;29;20059;-67
2021/05/03 09:25:47;;;;;;;4.05;0.90;;;;;;;18.81;59.35;99884.38;4925707;29;20044;-67
2021/05/03 09:28:16;;;;;;;2.38;0.93;;;;;;;18.80;59.09;99850.84;4911022;29;20057;-68
2021/05/03 09:30:44;;;;;;;3.83;0.95;;;;;;;18.81;59.11;99871.06;4909794;29;20546;-66
2021/05/03 09:33:18;;;;;;;4.10;1.00;;;;;;;18.80;59.12;99869.44;4927601;29;20058;-64
2021/05/03 09:35:47;;;;;;;1.88;0.93;;;;;;;18.80;59.05;99837.56;4912814;29;20050;-64
2021/05/03 09:38:33;;;;;;;4.47;1.08;;;;;;;18.76;58.57;99823.88;4929944;29;20087;-66
2021/05/03 09:41:25;;;;;;;1.55;0.80;;;;;;;18.76;58.84;99823.06;4928073;29;20467;-69
2021/05/03 09:44:03;;;;;;;3.28;0.90;;;;;;;18.78;58.63;99803.25;4929829;29;20036;-66
2021/05/03 09:46:36;;;;;;;2.30;0.60;;;;;;;18.77;58.19;99798.94;4928157;29;20027;-65
2021/05/03 09:49:12;;;;;;;3.05;1.10;;;;;;;18.79;58.46;99796.09;4927461;29;20031;-63
2021/05/03 09:51:44;;;;;;;1.70;0.80;;;;;;;18.78;57.93;99773.22;4928998;29;20200;-63
2021/05/03 09:54:24;;;;;;;6.03;1.02;;;;;;;18.80;58.02;99776.47;4928008;29;20047;-69
2021/05/03 09:57:05;;;;;;;6.10;0.93;;;;;;;18.78;57.97;99763.38;4926897;29;20471;-70
2021/05/03 09:59:49;;;;;;;8.27;1.42;;;;;;;18.81;57.92;99735.56;4911252;29;20120;-64
2021/05/03 10:02:28;;;;;;;6.47;0.90;;;;;;;18.80;57.81;99744.56;4928167;29;20554;-66
2021/05/03 10:05:18;;;;;;;4.82;0.98;;;;;;;18.82;58.07;99722.06;4928707;29;20039;-67
2021/05/03 10:07:51;;;;;;;4.13;0.85;;;;;;;18.85;57.86;99700.38;4929028;29;20446;-65
2021/05/03 10:10:21;;;;;;;5.07;0.80;;;;;;;18.88;57.61;99703.63;4930146;29;20059;-64
2021/05/03 10:12:47;;;;;;;4.20;0.98;;;;;;;18.89;57.73;99684.78;4930173;29;20049;-64
2021/05/03 10:15:15;;;;;;;2.50;0.90;;;;;;;18.91;57.44;99668.63;4928472;29;20035;-65
2021/05/03 10:17:43;;;;;;;3.63;0.60;;;;;;;18.93;57.09;99661.25;4927618;29;20416;-65
2021/05/03 10:20:11;;;;;;;1.75;0.73;;;;;;;18.95;56.76;99651.22;4928340;29;20051;-63
2021/05/03 10:22:36;;;;;;;1.40;0.60;;;;;;;18.96;56.86;99648.34;4925308;29;20151;-64
2021/05/03 10:25:04;;;;;;;1.52;0.75;;;;;;;18.98;56.39;99608.25;4911092;29;20138;-64
2021/05/03 10:27:32;;;;;;;2.22;0.70;;;;;;;19.01;56.37;99623.75;4927519;29;20032;-68
2021/05/03 10:30:10;;;;;;;2.55;0.70;;;;;;;19.00;55.86;99592.91;4910300;29;20051;-66
2021/05/03 10:32:36;;;;;;;1.02;0.57;;;;;;;19.04;56.09;99602.88;4925880;29;20031;-68
2021/05/03 10:35:07;;;;;;;3.75;0.70;;;;;;;19.07;55.88;99572.38;4910517;29;20069;-66
2021/05/03 10:37:33;;;;;;;1.23;0.60;;;;;;;19.09;55.90;99581.75;4926639;29;20086;-65
2021/05/03 10:40:07;;;;;;;3.30;1.05;;;;;;;19.09;55.63;99549.88;4927380;29;20713;-65
2021/05/03 10:42:33;;;;;;;2.20;0.40;;;;;;;19.13;55.79;99539.59;4926116;29;20494;-64
2021/05/03 10:45:07;;;;;;;4.28;0.90;;;;;;;19.14;55.49;99547.34;4909852;29;20043;-64
2021/05/03 10:50:37;;;;;;;4.65;0.80;;;;;;;19.15;56.10;99524.22;4927102;29;20035;-64
2021/05/03 10:53:24;;;;;;;2.83;0.70;;;;;;;19.17;56.04;99506.19;4925388;29;20050;-66
2021/05/03 10:55:51;;;;;;;2.90;0.63;;;;;;;19.22;56.50;99476.28;4926621;29;20046;-68
2021/05/03 10:58:16;;;;;;;4.25;0.60;;;;;;;19.23;56.63;99483.22;4909295;29;20566;-70
2021/05/03 11:01:02;;;;;;;1.63;0.68;;;;;;;19.21;56.44;99472.81;4927281;29;20044;-65
2021/05/03 11:03:58;;;;;;;3.10;0.60;;;;;;;19.21;56.48;99456.03;4926055;29;20035;-66
2021/05/03 11:06:36;;;;;;;0.70;0.40;;;;;;;19.23;56.48;99449.47;4910167;29;20086;-64
2021/05/03 11:09:42;;;;;;;2.05;0.75;;;;;;;19.22;56.38;99429.22;4926421;29;20044;-64
2021/05/03 11:12:10;;;;;;;3.92;0.50;;;;;;;19.26;56.18;99403.81;4926708;29;20435;-66
2021/05/03 11:14:40;;;;;;;3.33;0.50;;;;;;;19.27;56.38;99412.63;4927996;29;20398;-66
2021/05/03 11:17:14;;;;;;;2.20;0.65;;;;;;;19.29;56.36;99398.06;4911291;29;20094;-63
2021/05/03 11:20:04;;;;;;;0.93;0.30;;;;;;;19.28;56.54;99391.13;4928074;29;20078;-66
2021/05/03 11:22:42;;;;;;;2.47;0.73;;;;;;;19.29;56.74;99381.28;4925392;29;20945;-64
2021/05/03 11:25:22;;;;;;;1.63;0.43;;;;;;;19.30;56.38;99377.59;4928238;29;20089;-64
2021/05/03 11:30:54;;;;;;;4.80;0.60;;;;;;;19.31;56.67;99373.88;4912662;29;20534;-64
2021/05/03 11:33:36;;;;;;;2.70;0.47;;;;;;;19.28;56.30;99340.59;4928872;29;20459;-66
2021/05/03 11:36:13;;;;;;;7.60;0.93;;;;;;;19.27;56.87;99338.19;4919193;29;20486;-66
2021/05/03 11:41:45;;;;;;;3.03;0.70;;;;;;;19.29;56.98;99317.47;4926072;29;20110;-64
2021/05/03 11:44:40;;;;;;;8.27;0.77;;;;;;;19.28;57.15;99314.00;4907138;29;20040;-67
2021/05/03 11:47:06;;;;;;;2.35;0.70;;;;;;;19.27;57.28;99304.41;4936824;29;20123;-66
2021/05/03 11:49:42;;;;;;;5.07;0.50;;;;;;;19.25;57.32;99290.56;4908725;29;20039;-65
2021/05/03 11:52:08;;;;;;;4.45;0.57;;;;;;;19.26;57.34;99288.69;4930617;29;20071;-66
2021/05/03 11:54:42;;;;;;;4.32;0.60;;;;;;;19.26;57.73;99283.38;4923123;29;20102;-67
2021/05/03 11:57:16;;;;;;;5.03;0.70;;;;;;;19.26;58.70;99283.38;4931026;29;20043;-66